Main page
METAR-TAF:

METAR-TAF

Airports :

Luxor International Airport

Luxor, Egypt

latitude: 25-40N, longitude: 032-42E, elevation: 93 m

Current weather observation

The report was made 1 hour and 1 minutes ago, at 17:00 UTC
Wind 8 kt from the West/Northwest
Temperature 37°C
Humidity 18%
Pressure 1007 hPa
Visibility 10 km or more
no clouds below 1500 m and no cumulonimbus

METAR: HELX 221700Z 30008KT CAVOK 37/09 Q1007 NOSIG

Time: 20:01 (18:01 UTC)

Forecast

The report was made 1 hour and 1 minutes ago, at 17:00 UTC
Forecast valid from 22 at 18 UTC to 23 at 24 UTC
Wind 6 kt from the Northwest
Visibility 10 km or more
no clouds below 1500 m and no cumulonimbus

TAF: HELX 221700Z 2218/2324 32006KT CAVOK

Weather observations and forecasts of more than 4000 airports (METAR and TAF reports).

The available stations are represented by yellow and red dots on the map.

Hover mouse over dot to see the name of the station.

Then click to see weather observations and forecasts.

To change the map : click on the green buttons with a black cross to zoom in, on the green button with a dash to zoom out, or on the green arrows for adjacent maps.


METAR-TAF: